sensor_id;sensor_type;location;lat;lon;timestamp;temperature;humidity
4376;DHT22;2202;50.866;12.750;2023-07-02T00:01:28;15.80;98.20
4376;DHT22;2202;50.866;12.750;2023-07-02T00:03:55;15.90;98.00
4376;DHT22;2202;50.866;12.750;2023-07-02T00:06:21;15.90;97.70
4376;DHT22;2202;50.866;12.750;2023-07-02T00:08:48;15.90;97.70
4376;DHT22;2202;50.866;12.750;2023-07-02T00:11:16;15.90;97.70
4376;DHT22;2202;50.866;12.750;2023-07-02T00:13:43;16.00;97.60
4376;DHT22;2202;50.866;12.750;2023-07-02T00:16:09;16.00;97.40
4376;DHT22;2202;50.866;12.750;2023-07-02T00:18:38;16.00;97.30
4376;DHT22;2202;50.866;12.750;2023-07-02T00:21:05;16.00;97.50
4376;DHT22;2202;50.866;12.750;2023-07-02T00:23:32;16.00;97.30
4376;DHT22;2202;50.866;12.750;2023-07-02T00:25:59;16.10;97.00
4376;DHT22;2202;50.866;12.750;2023-07-02T00:28:26;16.10;96.90
4376;DHT22;2202;50.866;12.750;2023-07-02T00:30:53;16.10;96.80
4376;DHT22;2202;50.866;12.750;2023-07-02T00:33:19;16.10;97.00
4376;DHT22;2202;50.866;12.750;2023-07-02T00:35:47;16.10;97.00
4376;DHT22;2202;50.866;12.750;2023-07-02T00:38:14;16.10;96.80
4376;DHT22;2202;50.866;12.750;2023-07-02T00:40:41;16.20;96.80
4376;DHT22;2202;50.866;12.750;2023-07-02T00:43:08;16.20;96.80
4376;DHT22;2202;50.866;12.750;2023-07-02T00:45:38;16.20;96.70
4376;DHT22;2202;50.866;12.750;2023-07-02T00:48:05;16.20;96.90
4376;DHT22;2202;50.866;12.750;2023-07-02T00:50:32;16.10;97.10
4376;DHT22;2202;50.866;12.750;2023-07-02T00:53:00;16.20;96.90
4376;DHT22;2202;50.866;12.750;2023-07-02T00:55:27;16.10;97.10
4376;DHT22;2202;50.866;12.750;2023-07-02T00:57:54;16.00;97.60
4376;DHT22;2202;50.866;12.750;2023-07-02T01:00:22;16.00;97.80
4376;DHT22;2202;50.866;12.750;2023-07-02T01:02:53;16.10;97.70
4376;DHT22;2202;50.866;12.750;2023-07-02T01:05:22;16.10;97.80
4376;DHT22;2202;50.866;12.750;2023-07-02T01:07:49;16.00;97.90
4376;DHT22;2202;50.866;12.750;2023-07-02T01:10:17;16.00;98.00
4376;DHT22;2202;50.866;12.750;2023-07-02T01:12:45;16.00;98.10
4376;DHT22;2202;50.866;12.750;2023-07-02T01:15:13;16.00;98.20
4376;DHT22;2202;50.866;12.750;2023-07-02T01:17:40;16.00;98.20
4376;DHT22;2202;50.866;12.750;2023-07-02T01:20:09;16.00;98.20
4376;DHT22;2202;50.866;12.750;2023-07-02T01:22:37;16.00;98.30
4376;DHT22;2202;50.866;12.750;2023-07-02T01:25:04;15.90;98.60
4376;DHT22;2202;50.866;12.750;2023-07-02T01:27:34;15.90;98.80
4376;DHT22;2202;50.866;12.750;2023-07-02T01:30:02;15.90;98.80
4376;DHT22;2202;50.866;12.750;2023-07-02T01:32:30;15.90;98.80
4376;DHT22;2202;50.866;12.750;2023-07-02T01:34:56;15.90;98.80
4376;DHT22;2202;50.866;12.750;2023-07-02T01:37:25;15.90;98.60
4376;DHT22;2202;50.866;12.750;2023-07-02T01:39:52;15.90;98.60
4376;DHT22;2202;50.866;12.750;2023-07-02T01:42:20;16.00;98.40
4376;DHT22;2202;50.866;12.750;2023-07-02T01:44:48;16.00;98.30
4376;DHT22;2202;50.866;12.750;2023-07-02T01:47:16;16.00;98.30
4376;DHT22;2202;50.866;12.750;2023-07-02T01:49:45;15.90;98.30
4376;DHT22;2202;50.866;12.750;2023-07-02T01:52:12;15.90;98.20
4376;DHT22;2202;50.866;12.750;2023-07-02T01:54:40;15.90;98.00
4376;DHT22;2202;50.866;12.750;2023-07-02T01:57:07;15.90;98.00
4376;DHT22;2202;50.866;12.750;2023-07-02T01:59:34;15.90;98.00
4376;DHT22;2202;50.866;12.750;2023-07-02T02:02:01;15.90;97.90
4376;DHT22;2202;50.866;12.750;2023-07-02T02:04:27;15.90;97.90
4376;DHT22;2202;50.866;12.750;2023-07-02T02:06:54;15.90;97.80
4376;DHT22;2202;50.866;12.750;2023-07-02T02:09:22;16.00;97.70
4376;DHT22;2202;50.866;12.750;2023-07-02T02:11:50;15.90;97.60
4376;DHT22;2202;50.866;12.750;2023-07-02T02:14:17;15.90;97.50
4376;DHT22;2202;50.866;12.750;2023-07-02T02:16:45;15.90;97.70
4376;DHT22;2202;50.866;12.750;2023-07-02T02:19:12;15.90;97.80
4376;DHT22;2202;50.866;12.750;2023-07-02T02:21:40;15.90;98.00
4376;DHT22;2202;50.866;12.750;2023-07-02T02:24:07;15.80;98.20
4376;DHT22;2202;50.866;12.750;2023-07-02T02:26:34;15.90;98.10
4376;DHT22;2202;50.866;12.750;2023-07-02T02:29:02;15.90;98.20
4376;DHT22;2202;50.866;12.750;2023-07-02T02:31:29;15.90;98.20
4376;DHT22;2202;50.866;12.750;2023-07-02T02:33:56;15.90;98.20
4376;DHT22;2202;50.866;12.750;2023-07-02T02:36:23;15.90;98.10
4376;DHT22;2202;50.866;12.750;2023-07-02T02:38:50;15.80;98.20
4376;DHT22;2202;50.866;12.750;2023-07-02T02:41:17;15.80;98.10
4376;DHT22;2202;50.866;12.750;2023-07-02T02:43:43;15.80;98.00
4376;DHT22;2202;50.866;12.750;2023-07-02T02:46:12;15.80;98.10
4376;DHT22;2202;50.866;12.750;2023-07-02T02:48:45;15.90;98.00
4376;DHT22;2202;50.866;12.750;2023-07-02T02:51:12;15.90;97.80
4376;DHT22;2202;50.866;12.750;2023-07-02T02:53:39;15.90;97.70
4376;DHT22;2202;50.866;12.750;2023-07-02T02:56:06;15.90;97.80
4376;DHT22;2202;50.866;12.750;2023-07-02T02:58:33;16.00;97.70
4376;DHT22;2202;50.866;12.750;2023-07-02T03:01:00;16.00;97.50
4376;DHT22;2202;50.866;12.750;2023-07-02T03:03:28;16.00;97.60
4376;DHT22;2202;50.866;12.750;2023-07-02T03:05:55;16.00;97.50
4376;DHT22;2202;50.866;12.750;2023-07-02T03:08:21;16.00;97.50
4376;DHT22;2202;50.866;12.750;2023-07-02T03:10:48;16.00;97.50
4376;DHT22;2202;50.866;12.750;2023-07-02T03:13:15;16.00;97.60
4376;DHT22;2202;50.866;12.750;2023-07-02T03:15:42;16.00;97.60
4376;DHT22;2202;50.866;12.750;2023-07-02T03:18:09;16.00;97.60
4376;DHT22;2202;50.866;12.750;2023-07-02T03:20:37;15.90;97.70
4376;DHT22;2202;50.866;12.750;2023-07-02T03:23:04;15.90;97.80
4376;DHT22;2202;50.866;12.750;2023-07-02T03:25:31;15.90;97.80
4376;DHT22;2202;50.866;12.750;2023-07-02T03:27:57;15.90;97.90
4376;DHT22;2202;50.866;12.750;2023-07-02T03:30:24;15.90;98.00
4376;DHT22;2202;50.866;12.750;2023-07-02T03:32:51;15.70;98.00
4376;DHT22;2202;50.866;12.750;2023-07-02T03:35:18;15.60;96.80
4376;DHT22;2202;50.866;12.750;2023-07-02T03:37:46;15.50;96.60
4376;DHT22;2202;50.866;12.750;2023-07-02T03:40:13;15.40;96.90
4376;DHT22;2202;50.866;12.750;2023-07-02T03:42:40;15.30;97.70
4376;DHT22;2202;50.866;12.750;2023-07-02T03:45:07;15.30;98.20
4376;DHT22;2202;50.866;12.750;2023-07-02T03:47:34;15.40;98.30
4376;DHT22;2202;50.866;12.750;2023-07-02T03:50:01;15.40;98.50
4376;DHT22;2202;50.866;12.750;2023-07-02T03:52:28;15.40;98.50
4376;DHT22;2202;50.866;12.750;2023-07-02T03:54:56;15.40;98.40
4376;DHT22;2202;50.866;12.750;2023-07-02T03:57:23;15.40;98.30
4376;DHT22;2202;50.866;12.750;2023-07-02T03:59:53;15.30;98.10
4376;DHT22;2202;50.866;12.750;2023-07-02T04:02:20;15.30;98.30
4376;DHT22;2202;50.866;12.750;2023-07-02T04:04:46;15.30;98.30
4376;DHT22;2202;50.866;12.750;2023-07-02T04:07:13;15.30;98.20
4376;DHT22;2202;50.866;12.750;2023-07-02T04:09:41;15.30;98.20
4376;DHT22;2202;50.866;12.750;2023-07-02T04:12:09;15.30;98.20
4376;DHT22;2202;50.866;12.750;2023-07-02T04:14:36;15.20;98.10
4376;DHT22;2202;50.866;12.750;2023-07-02T04:17:03;15.20;98.20
4376;DHT22;2202;50.866;12.750;2023-07-02T04:19:30;15.20;97.90
4376;DHT22;2202;50.866;12.750;2023-07-02T04:21:57;15.10;97.80
4376;DHT22;2202;50.866;12.750;2023-07-02T04:24:24;15.20;98.00
4376;DHT22;2202;50.866;12.750;2023-07-02T04:26:51;15.20;97.80
4376;DHT22;2202;50.866;12.750;2023-07-02T04:29:19;15.20;97.70
4376;DHT22;2202;50.866;12.750;2023-07-02T04:31:46;15.30;97.70
4376;DHT22;2202;50.866;12.750;2023-07-02T04:34:13;15.30;97.50
4376;DHT22;2202;50.866;12.750;2023-07-02T04:36:40;15.30;97.50
4376;DHT22;2202;50.866;12.750;2023-07-02T04:39:08;15.30;97.60
4376;DHT22;2202;50.866;12.750;2023-07-02T04:41:36;15.30;97.80
4376;DHT22;2202;50.866;12.750;2023-07-02T04:44:03;15.30;97.80
4376;DHT22;2202;50.866;12.750;2023-07-02T04:46:31;15.20;97.70
4376;DHT22;2202;50.866;12.750;2023-07-02T04:48:58;15.30;97.80
4376;DHT22;2202;50.866;12.750;2023-07-02T04:51:25;15.30;98.00
4376;DHT22;2202;50.866;12.750;2023-07-02T04:53:52;15.30;98.00
4376;DHT22;2202;50.866;12.750;2023-07-02T04:56:18;15.30;98.10
4376;DHT22;2202;50.866;12.750;2023-07-02T04:58:45;15.30;98.10
4376;DHT22;2202;50.866;12.750;2023-07-02T05:01:12;15.30;98.20
4376;DHT22;2202;50.866;12.750;2023-07-02T05:03:40;15.30;98.20
4376;DHT22;2202;50.866;12.750;2023-07-02T05:06:07;15.30;97.90
4376;DHT22;2202;50.866;12.750;2023-07-02T05:08:34;15.20;97.60
4376;DHT22;2202;50.866;12.750;2023-07-02T05:11:02;15.20;97.50
4376;DHT22;2202;50.866;12.750;2023-07-02T05:13:28;15.20;97.20
4376;DHT22;2202;50.866;12.750;2023-07-02T05:15:55;15.20;97.20
4376;DHT22;2202;50.866;12.750;2023-07-02T05:18:22;15.20;97.20
4376;DHT22;2202;50.866;12.750;2023-07-02T05:20:50;15.10;97.20
4376;DHT22;2202;50.866;12.750;2023-07-02T05:23:17;15.10;97.30
4376;DHT22;2202;50.866;12.750;2023-07-02T05:25:44;15.20;97.10
4376;DHT22;2202;50.866;12.750;2023-07-02T05:28:11;15.10;97.00
4376;DHT22;2202;50.866;12.750;2023-07-02T05:30:38;15.10;96.80
4376;DHT22;2202;50.866;12.750;2023-07-02T05:33:05;15.10;96.80
4376;DHT22;2202;50.866;12.750;2023-07-02T05:35:32;15.10;97.00
4376;DHT22;2202;50.866;12.750;2023-07-02T05:38:00;15.10;97.00
4376;DHT22;2202;50.866;12.750;2023-07-02T05:40:27;15.10;96.90
4376;DHT22;2202;50.866;12.750;2023-07-02T05:42:54;15.20;96.50
4376;DHT22;2202;50.866;12.750;2023-07-02T05:45:20;15.20;96.40
4376;DHT22;2202;50.866;12.750;2023-07-02T05:47:48;15.20;96.50
4376;DHT22;2202;50.866;12.750;2023-07-02T05:50:15;15.40;96.20
4376;DHT22;2202;50.866;12.750;2023-07-02T05:52:42;15.50;96.30
4376;DHT22;2202;50.866;12.750;2023-07-02T05:55:11;15.50;96.00
4376;DHT22;2202;50.866;12.750;2023-07-02T05:57:38;15.50;96.20
4376;DHT22;2202;50.866;12.750;2023-07-02T06:00:06;15.60;96.00
4376;DHT22;2202;50.866;12.750;2023-07-02T06:02:33;15.60;95.50
4376;DHT22;2202;50.866;12.750;2023-07-02T06:05:00;15.60;95.60
4376;DHT22;2202;50.866;12.750;2023-07-02T06:07:27;15.70;95.90
4376;DHT22;2202;50.866;12.750;2023-07-02T06:09:54;15.60;96.10
4376;DHT22;2202;50.866;12.750;2023-07-02T06:12:23;15.70;96.10
4376;DHT22;2202;50.866;12.750;2023-07-02T06:14:49;15.80;95.90
4376;DHT22;2202;50.866;12.750;2023-07-02T06:17:16;15.90;95.60
4376;DHT22;2202;50.866;12.750;2023-07-02T06:19:44;16.00;94.90
4376;DHT22;2202;50.866;12.750;2023-07-02T06:22:12;15.90;95.30
4376;DHT22;2202;50.866;12.750;2023-07-02T06:24:39;16.00;95.20
4376;DHT22;2202;50.866;12.750;2023-07-02T06:27:06;16.00;95.10
4376;DHT22;2202;50.866;12.750;2023-07-02T06:29:34;16.10;95.30
4376;DHT22;2202;50.866;12.750;2023-07-02T06:32:01;16.10;95.10
4376;DHT22;2202;50.866;12.750;2023-07-02T06:34:27;16.10;95.00
4376;DHT22;2202;50.866;12.750;2023-07-02T06:36:54;16.10;94.70
4376;DHT22;2202;50.866;12.750;2023-07-02T06:39:21;16.10;95.10
4376;DHT22;2202;50.866;12.750;2023-07-02T06:41:48;16.10;94.60
4376;DHT22;2202;50.866;12.750;2023-07-02T06:44:15;16.10;94.50
4376;DHT22;2202;50.866;12.750;2023-07-02T06:46:45;16.20;94.50
4376;DHT22;2202;50.866;12.750;2023-07-02T06:49:12;16.20;94.30
4376;DHT22;2202;50.866;12.750;2023-07-02T06:51:39;16.30;94.20
4376;DHT22;2202;50.866;12.750;2023-07-02T06:54:06;16.40;94.10
4376;DHT22;2202;50.866;12.750;2023-07-02T06:56:33;16.50;93.60
4376;DHT22;2202;50.866;12.750;2023-07-02T06:59:01;16.70;93.30
4376;DHT22;2202;50.866;12.750;2023-07-02T07:01:28;16.80;93.40
4376;DHT22;2202;50.866;12.750;2023-07-02T07:03:56;17.10;92.90
4376;DHT22;2202;50.866;12.750;2023-07-02T07:06:24;17.20;92.20
4376;DHT22;2202;50.866;12.750;2023-07-02T07:08:51;17.20;92.10
4376;DHT22;2202;50.866;12.750;2023-07-02T07:11:18;17.20;92.10
4376;DHT22;2202;50.866;12.750;2023-07-02T07:13:45;17.30;91.90
4376;DHT22;2202;50.866;12.750;2023-07-02T07:16:11;17.30;92.30
4376;DHT22;2202;50.866;12.750;2023-07-02T07:18:38;17.30;92.00
4376;DHT22;2202;50.866;12.750;2023-07-02T07:21:06;17.40;92.80
4376;DHT22;2202;50.866;12.750;2023-07-02T07:23:33;17.60;91.70
4376;DHT22;2202;50.866;12.750;2023-07-02T07:26:00;17.60;91.60
4376;DHT22;2202;50.866;12.750;2023-07-02T07:28:27;17.70;91.20
4376;DHT22;2202;50.866;12.750;2023-07-02T07:30:54;17.60;91.00
4376;DHT22;2202;50.866;12.750;2023-07-02T07:33:21;17.40;91.10
4376;DHT22;2202;50.866;12.750;2023-07-02T07:35:47;17.30;90.60
4376;DHT22;2202;50.866;12.750;2023-07-02T07:38:16;17.40;90.50
4376;DHT22;2202;50.866;12.750;2023-07-02T07:40:43;17.50;90.80
4376;DHT22;2202;50.866;12.750;2023-07-02T07:43:10;17.40;90.10
4376;DHT22;2202;50.866;12.750;2023-07-02T07:45:37;17.60;90.70
4376;DHT22;2202;50.866;12.750;2023-07-02T07:48:05;17.70;90.30
4376;DHT22;2202;50.866;12.750;2023-07-02T07:50:31;17.80;89.60
4376;DHT22;2202;50.866;12.750;2023-07-02T07:52:59;17.90;88.40
4376;DHT22;2202;50.866;12.750;2023-07-02T07:55:27;17.90;88.00
4376;DHT22;2202;50.866;12.750;2023-07-02T07:57:54;17.90;88.80
4376;DHT22;2202;50.866;12.750;2023-07-02T08:00:21;17.80;88.80
4376;DHT22;2202;50.866;12.750;2023-07-02T08:02:50;18.00;87.80
4376;DHT22;2202;50.866;12.750;2023-07-02T08:05:17;18.30;86.60
4376;DHT22;2202;50.866;12.750;2023-07-02T08:07:44;18.60;84.40
4376;DHT22;2202;50.866;12.750;2023-07-02T08:10:11;18.90;84.60
4376;DHT22;2202;50.866;12.750;2023-07-02T08:12:39;19.40;80.00
4376;DHT22;2202;50.866;12.750;2023-07-02T08:15:07;19.50;73.60
4376;DHT22;2202;50.866;12.750;2023-07-02T08:17:34;19.80;74.20
4376;DHT22;2202;50.866;12.750;2023-07-02T08:20:01;19.70;71.40
4376;DHT22;2202;50.866;12.750;2023-07-02T08:22:30;19.60;73.40
4376;DHT22;2202;50.866;12.750;2023-07-02T08:24:57;19.80;67.60
4376;DHT22;2202;50.866;12.750;2023-07-02T08:27:24;19.70;65.60
4376;DHT22;2202;50.866;12.750;2023-07-02T08:29:53;20.00;68.60
4376;DHT22;2202;50.866;12.750;2023-07-02T08:32:19;20.50;62.00
4376;DHT22;2202;50.866;12.750;2023-07-02T08:34:46;20.40;65.20
4376;DHT22;2202;50.866;12.750;2023-07-02T08:37:13;20.60;60.80
4376;DHT22;2202;50.866;12.750;2023-07-02T08:39:40;20.70;58.70
4376;DHT22;2202;50.866;12.750;2023-07-02T08:42:07;20.60;61.80
4376;DHT22;2202;50.866;12.750;2023-07-02T08:44:34;20.60;59.00
4376;DHT22;2202;50.866;12.750;2023-07-02T08:47:03;20.80;60.60
4376;DHT22;2202;50.866;12.750;2023-07-02T08:49:32;20.40;59.80
4376;DHT22;2202;50.866;12.750;2023-07-02T08:51:59;20.60;58.70
4376;DHT22;2202;50.866;12.750;2023-07-02T08:54:26;20.40;61.80
4376;DHT22;2202;50.866;12.750;2023-07-02T08:56:52;20.40;60.80
4376;DHT22;2202;50.866;12.750;2023-07-02T08:59:19;20.60;58.30
4376;DHT22;2202;50.866;12.750;2023-07-02T09:01:47;20.90;58.70
4376;DHT22;2202;50.866;12.750;2023-07-02T09:04:22;21.30;58.20
4376;DHT22;2202;50.866;12.750;2023-07-02T09:06:50;21.20;56.00
4376;DHT22;2202;50.866;12.750;2023-07-02T09:09:18;21.20;56.70
4376;DHT22;2202;50.866;12.750;2023-07-02T09:11:48;21.20;55.30
4376;DHT22;2202;50.866;12.750;2023-07-02T09:14:25;21.10;50.90
4376;DHT22;2202;50.866;12.750;2023-07-02T09:17:05;20.60;51.20
4376;DHT22;2202;50.866;12.750;2023-07-02T09:19:34;20.50;51.80
4376;DHT22;2202;50.866;12.750;2023-07-02T09:22:02;20.40;52.30
4376;DHT22;2202;50.866;12.750;2023-07-02T09:24:30;20.80;54.40
4376;DHT22;2202;50.866;12.750;2023-07-02T09:26:59;20.80;52.10
4376;DHT22;2202;50.866;12.750;2023-07-02T09:29:28;20.70;54.30
4376;DHT22;2202;50.866;12.750;2023-07-02T09:31:56;20.60;53.90
4376;DHT22;2202;50.866;12.750;2023-07-02T09:34:27;20.30;53.40
4376;DHT22;2202;50.866;12.750;2023-07-02T09:36:56;20.10;55.00
4376;DHT22;2202;50.866;12.750;2023-07-02T09:39:26;20.00;56.20
4376;DHT22;2202;50.866;12.750;2023-07-02T09:41:54;20.20;58.50
4376;DHT22;2202;50.866;12.750;2023-07-02T09:44:22;20.70;57.10
4376;DHT22;2202;50.866;12.750;2023-07-02T09:46:57;21.00;55.00
4376;DHT22;2202;50.866;12.750;2023-07-02T09:49:25;21.00;51.90
4376;DHT22;2202;50.866;12.750;2023-07-02T09:51:52;21.50;53.00
4376;DHT22;2202;50.866;12.750;2023-07-02T09:54:21;21.70;50.50
4376;DHT22;2202;50.866;12.750;2023-07-02T09:56:48;21.50;52.50
4376;DHT22;2202;50.866;12.750;2023-07-02T09:59:15;21.50;53.50
4376;DHT22;2202;50.866;12.750;2023-07-02T10:01:41;21.30;52.80
4376;DHT22;2202;50.866;12.750;2023-07-02T10:04:12;21.00;52.80
4376;DHT22;2202;50.866;12.750;2023-07-02T10:06:46;20.20;56.40
4376;DHT22;2202;50.866;12.750;2023-07-02T10:09:14;19.80;56.90
4376;DHT22;2202;50.866;12.750;2023-07-02T10:11:42;19.70;57.30
4376;DHT22;2202;50.866;12.750;2023-07-02T10:14:09;19.50;59.60
4376;DHT22;2202;50.866;12.750;2023-07-02T10:16:49;19.70;63.00
4376;DHT22;2202;50.866;12.750;2023-07-02T10:19:16;20.50;58.20
4376;DHT22;2202;50.866;12.750;2023-07-02T10:21:43;21.10;59.20
4376;DHT22;2202;50.866;12.750;2023-07-02T10:24:12;21.00;53.20
4376;DHT22;2202;50.866;12.750;2023-07-02T10:26:52;20.60;56.20
4376;DHT22;2202;50.866;12.750;2023-07-02T10:29:19;20.20;54.80
4376;DHT22;2202;50.866;12.750;2023-07-02T10:31:50;19.90;58.30
4376;DHT22;2202;50.866;12.750;2023-07-02T10:34:28;19.90;59.80
4376;DHT22;2202;50.866;12.750;2023-07-02T10:36:56;19.70;58.70
4376;DHT22;2202;50.866;12.750;2023-07-02T10:39:23;19.70;57.60
4376;DHT22;2202;50.866;12.750;2023-07-02T10:41:51;19.90;59.80
4376;DHT22;2202;50.866;12.750;2023-07-02T10:44:18;20.00;57.40
4376;DHT22;2202;50.866;12.750;2023-07-02T10:46:45;20.10;55.30
4376;DHT22;2202;50.866;12.750;2023-07-02T10:49:13;20.50;56.20
4376;DHT22;2202;50.866;12.750;2023-07-02T10:51:40;21.00;55.50
4376;DHT22;2202;50.866;12.750;2023-07-02T10:54:06;21.20;56.00
4376;DHT22;2202;50.866;12.750;2023-07-02T10:56:35;21.50;52.10
4376;DHT22;2202;50.866;12.750;2023-07-02T10:59:03;21.30;50.70
4376;DHT22;2202;50.866;12.750;2023-07-02T11:01:31;21.00;51.10
4376;DHT22;2202;50.866;12.750;2023-07-02T11:03:59;20.70;53.70
4376;DHT22;2202;50.866;12.750;2023-07-02T11:06:27;20.40;56.70
4376;DHT22;2202;50.866;12.750;2023-07-02T11:08:54;20.40;57.40
4376;DHT22;2202;50.866;12.750;2023-07-02T11:11:22;20.50;57.60
4376;DHT22;2202;50.866;12.750;2023-07-02T11:13:51;20.30;50.90
4376;DHT22;2202;50.866;12.750;2023-07-02T11:16:23;20.00;53.00
4376;DHT22;2202;50.866;12.750;2023-07-02T11:18:52;20.10;54.40
4376;DHT22;2202;50.866;12.750;2023-07-02T11:21:19;20.50;56.60
4376;DHT22;2202;50.866;12.750;2023-07-02T11:23:46;20.70;56.90
4376;DHT22;2202;50.866;12.750;2023-07-02T11:26:13;21.10;55.10
4376;DHT22;2202;50.866;12.750;2023-07-02T11:28:49;21.50;52.50
4376;DHT22;2202;50.866;12.750;2023-07-02T11:31:26;21.60;50.30
4376;DHT22;2202;50.866;12.750;2023-07-02T11:33:53;21.30;50.00
4376;DHT22;2202;50.866;12.750;2023-07-02T11:36:21;21.30;49.30
4376;DHT22;2202;50.866;12.750;2023-07-02T11:38:49;21.40;51.20
4376;DHT22;2202;50.866;12.750;2023-07-02T11:41:16;21.70;52.70
4376;DHT22;2202;50.866;12.750;2023-07-02T11:43:43;21.80;48.80
4376;DHT22;2202;50.866;12.750;2023-07-02T11:46:10;21.90;49.10
4376;DHT22;2202;50.866;12.750;2023-07-02T11:48:38;21.90;49.10
4376;DHT22;2202;50.866;12.750;2023-07-02T11:51:05;22.30;50.70
4376;DHT22;2202;50.866;12.750;2023-07-02T11:53:32;22.40;50.70
4376;DHT22;2202;50.866;12.750;2023-07-02T11:55:59;22.30;50.00
4376;DHT22;2202;50.866;12.750;2023-07-02T11:58:27;22.30;50.20
4376;DHT22;2202;50.866;12.750;2023-07-02T12:00:53;22.30;48.20
4376;DHT22;2202;50.866;12.750;2023-07-02T12:03:20;22.50;48.00
4376;DHT22;2202;50.866;12.750;2023-07-02T12:05:49;22.30;48.80
4376;DHT22;2202;50.866;12.750;2023-07-02T12:08:16;22.30;46.10
4376;DHT22;2202;50.866;12.750;2023-07-02T12:10:43;22.20;47.00
4376;DHT22;2202;50.866;12.750;2023-07-02T12:13:10;22.00;46.10
4376;DHT22;2202;50.866;12.750;2023-07-02T12:15:37;21.90;44.30
4376;DHT22;2202;50.866;12.750;2023-07-02T12:18:04;21.80;47.50
4376;DHT22;2202;50.866;12.750;2023-07-02T12:20:31;21.80;46.30
4376;DHT22;2202;50.866;12.750;2023-07-02T12:22:59;21.90;52.30
4376;DHT22;2202;50.866;12.750;2023-07-02T12:25:26;22.10;49.10
4376;DHT22;2202;50.866;12.750;2023-07-02T12:27:53;22.20;45.70
4376;DHT22;2202;50.866;12.750;2023-07-02T12:30:20;22.10;45.00
4376;DHT22;2202;50.866;12.750;2023-07-02T12:32:46;21.90;47.90
4376;DHT22;2202;50.866;12.750;2023-07-02T12:35:13;21.70;45.20
4376;DHT22;2202;50.866;12.750;2023-07-02T12:37:44;21.70;48.20
4376;DHT22;2202;50.866;12.750;2023-07-02T12:40:13;21.50;47.90
4376;DHT22;2202;50.866;12.750;2023-07-02T12:42:41;21.00;51.20
4376;DHT22;2202;50.866;12.750;2023-07-02T12:45:09;20.80;50.20
4376;DHT22;2202;50.866;12.750;2023-07-02T12:47:37;21.20;50.90
4376;DHT22;2202;50.866;12.750;2023-07-02T12:50:04;21.70;49.60
4376;DHT22;2202;50.866;12.750;2023-07-02T12:52:31;22.10;45.60
4376;DHT22;2202;50.866;12.750;2023-07-02T12:54:58;22.20;45.90
4376;DHT22;2202;50.866;12.750;2023-07-02T12:57:26;21.80;47.00
4376;DHT22;2202;50.866;12.750;2023-07-02T12:59:53;22.00;45.00
4376;DHT22;2202;50.866;12.750;2023-07-02T13:02:20;21.90;42.40
4376;DHT22;2202;50.866;12.750;2023-07-02T13:04:47;21.90;44.10
4376;DHT22;2202;50.866;12.750;2023-07-02T13:07:14;22.30;43.80
4376;DHT22;2202;50.866;12.750;2023-07-02T13:09:42;22.50;42.20
4376;DHT22;2202;50.866;12.750;2023-07-02T13:12:10;22.40;43.40
4376;DHT22;2202;50.866;12.750;2023-07-02T13:14:38;22.10;42.40
4376;DHT22;2202;50.866;12.750;2023-07-02T13:17:05;21.90;44.50
4376;DHT22;2202;50.866;12.750;2023-07-02T13:19:32;21.90;46.60
4376;DHT22;2202;50.866;12.750;2023-07-02T13:22:01;21.50;47.50
4376;DHT22;2202;50.866;12.750;2023-07-02T13:24:33;21.50;47.20
4376;DHT22;2202;50.866;12.750;2023-07-02T13:27:02;21.90;47.30
4376;DHT22;2202;50.866;12.750;2023-07-02T13:29:30;22.00;49.10
4376;DHT22;2202;50.866;12.750;2023-07-02T13:31:58;21.80;45.00
4376;DHT22;2202;50.866;12.750;2023-07-02T13:34:25;21.20;46.30
4376;DHT22;2202;50.866;12.750;2023-07-02T13:36:52;21.20;49.30
4376;DHT22;2202;50.866;12.750;2023-07-02T13:39:19;21.40;48.60
4376;DHT22;2202;50.866;12.750;2023-07-02T13:41:46;21.20;47.00
4376;DHT22;2202;50.866;12.750;2023-07-02T13:44:13;21.20;48.40
4376;DHT22;2202;50.866;12.750;2023-07-02T13:46:41;21.40;46.30
4376;DHT22;2202;50.866;12.750;2023-07-02T13:49:10;21.60;45.70
4376;DHT22;2202;50.866;12.750;2023-07-02T13:51:36;21.80;48.20
4376;DHT22;2202;50.866;12.750;2023-07-02T13:54:03;22.20;45.90
4376;DHT22;2202;50.866;12.750;2023-07-02T13:56:30;22.30;45.70
4376;DHT22;2202;50.866;12.750;2023-07-02T13:59:05;22.50;45.40
4376;DHT22;2202;50.866;12.750;2023-07-02T14:01:32;22.40;42.70
4376;DHT22;2202;50.866;12.750;2023-07-02T14:03:59;22.60;43.40
4376;DHT22;2202;50.866;12.750;2023-07-02T14:06:26;22.60;39.90
4376;DHT22;2202;50.866;12.750;2023-07-02T14:08:53;22.20;42.20
4376;DHT22;2202;50.866;12.750;2023-07-02T14:11:21;22.00;41.10
4376;DHT22;2202;50.866;12.750;2023-07-02T14:13:48;22.00;43.10
4376;DHT22;2202;50.866;12.750;2023-07-02T14:16:16;22.00;41.50
4376;DHT22;2202;50.866;12.750;2023-07-02T14:18:43;22.00;40.90
4376;DHT22;2202;50.866;12.750;2023-07-02T14:21:10;22.20;41.70
4376;DHT22;2202;50.866;12.750;2023-07-02T14:23:37;22.20;43.60
4376;DHT22;2202;50.866;12.750;2023-07-02T14:26:04;22.40;41.50
4376;DHT22;2202;50.866;12.750;2023-07-02T14:28:31;22.70;41.30
4376;DHT22;2202;50.866;12.750;2023-07-02T14:30:59;22.90;41.10
4376;DHT22;2202;50.866;12.750;2023-07-02T14:33:29;22.70;39.70
4376;DHT22;2202;50.866;12.750;2023-07-02T14:35:56;22.70;41.30
4376;DHT22;2202;50.866;12.750;2023-07-02T14:38:24;22.80;44.50
4376;DHT22;2202;50.866;12.750;2023-07-02T14:40:51;22.70;39.70
4376;DHT22;2202;50.866;12.750;2023-07-02T14:43:18;22.20;41.30
4376;DHT22;2202;50.866;12.750;2023-07-02T14:45:47;21.90;46.40
4376;DHT22;2202;50.866;12.750;2023-07-02T14:48:14;22.20;44.00
4376;DHT22;2202;50.866;12.750;2023-07-02T14:50:45;22.50;43.80
4376;DHT22;2202;50.866;12.750;2023-07-02T14:53:12;22.50;43.20
4376;DHT22;2202;50.866;12.750;2023-07-02T14:55:39;22.70;41.50
4376;DHT22;2202;50.866;12.750;2023-07-02T14:58:06;22.80;41.10
4376;DHT22;2202;50.866;12.750;2023-07-02T15:00:34;22.90;40.90
4376;DHT22;2202;50.866;12.750;2023-07-02T15:03:01;22.90;44.00
4376;DHT22;2202;50.866;12.750;2023-07-02T15:05:27;22.70;40.20
4376;DHT22;2202;50.866;12.750;2023-07-02T15:07:56;22.80;40.90
4376;DHT22;2202;50.866;12.750;2023-07-02T15:10:22;22.50;39.20
4376;DHT22;2202;50.866;12.750;2023-07-02T15:12:49;22.30;40.80
4376;DHT22;2202;50.866;12.750;2023-07-02T15:15:16;22.00;43.40
4376;DHT22;2202;50.866;12.750;2023-07-02T15:17:43;21.50;43.10
4376;DHT22;2202;50.866;12.750;2023-07-02T15:20:11;21.50;45.20
4376;DHT22;2202;50.866;12.750;2023-07-02T15:22:38;21.80;44.70
4376;DHT22;2202;50.866;12.750;2023-07-02T15:25:07;21.80;45.20
4376;DHT22;2202;50.866;12.750;2023-07-02T15:27:34;21.90;43.60
4376;DHT22;2202;50.866;12.750;2023-07-02T15:30:00;21.50;45.60
4376;DHT22;2202;50.866;12.750;2023-07-02T15:32:27;21.40;48.00
4376;DHT22;2202;50.866;12.750;2023-07-02T15:34:54;21.50;45.40
4376;DHT22;2202;50.866;12.750;2023-07-02T15:37:22;21.50;45.60
4376;DHT22;2202;50.866;12.750;2023-07-02T15:39:49;21.70;46.40
4376;DHT22;2202;50.866;12.750;2023-07-02T15:42:17;21.80;45.40
4376;DHT22;2202;50.866;12.750;2023-07-02T15:44:44;21.40;45.60
4376;DHT22;2202;50.866;12.750;2023-07-02T15:47:11;21.40;47.20